sensor_id;sensor_type;location;lat;lon;timestamp;temperature;humidity
62259;DHT22;48241;48.824;10.102;2023-08-06T00:01:07;16.40;99.90
62259;DHT22;48241;48.824;10.102;2023-08-06T00:03:32;15.90;99.90
62259;DHT22;48241;48.824;10.102;2023-08-06T00:05:58;16.00;99.90
62259;DHT22;48241;48.824;10.102;2023-08-06T00:08:23;15.90;99.90
62259;DHT22;48241;48.824;10.102;2023-08-06T00:10:49;15.90;99.90
62259;DHT22;48241;48.824;10.102;2023-08-06T00:13:15;15.80;99.90
62259;DHT22;48241;48.824;10.102;2023-08-06T00:15:41;16.00;99.90
62259;DHT22;48241;48.824;10.102;2023-08-06T00:18:07;16.30;99.90
62259;DHT22;48241;48.824;10.102;2023-08-06T00:20:47;16.40;99.90
62259;DHT22;48241;48.824;10.102;2023-08-06T00:23:13;16.20;99.90
62259;DHT22;48241;48.824;10.102;2023-08-06T00:25:41;16.60;99.90
62259;DHT22;48241;48.824;10.102;2023-08-06T00:28:06;16.60;99.90
62259;DHT22;48241;48.824;10.102;2023-08-06T00:30:35;16.60;99.90
62259;DHT22;48241;48.824;10.102;2023-08-06T00:33:01;16.90;99.90
62259;DHT22;48241;48.824;10.102;2023-08-06T00:35:26;16.60;99.90
62259;DHT22;48241;48.824;10.102;2023-08-06T00:37:52;16.40;99.90
62259;DHT22;48241;48.824;10.102;2023-08-06T00:40:20;16.60;99.90
62259;DHT22;48241;48.824;10.102;2023-08-06T00:42:48;16.60;99.90
62259;DHT22;48241;48.824;10.102;2023-08-06T00:45:14;16.50;99.90
62259;DHT22;48241;48.824;10.102;2023-08-06T00:47:40;16.70;99.90
62259;DHT22;48241;48.824;10.102;2023-08-06T00:50:09;16.90;99.90
62259;DHT22;48241;48.824;10.102;2023-08-06T00:52:35;16.90;99.90
62259;DHT22;48241;48.824;10.102;2023-08-06T00:55:01;17.00;99.90
62259;DHT22;48241;48.824;10.102;2023-08-06T00:57:27;16.60;99.90
62259;DHT22;48241;48.824;10.102;2023-08-06T00:59:53;16.70;99.90
62259;DHT22;48241;48.824;10.102;2023-08-06T01:02:19;16.80;99.90
62259;DHT22;48241;48.824;10.102;2023-08-06T01:04:45;16.80;99.90
62259;DHT22;48241;48.824;10.102;2023-08-06T01:08:08;17.00;99.90
62259;DHT22;48241;48.824;10.102;2023-08-06T01:10:43;16.80;99.90
62259;DHT22;48241;48.824;10.102;2023-08-06T01:16:02;16.90;99.90
62259;DHT22;48241;48.824;10.102;2023-08-06T01:18:29;16.90;99.90
62259;DHT22;48241;48.824;10.102;2023-08-06T01:20:54;16.90;99.90
62259;DHT22;48241;48.824;10.102;2023-08-06T01:23:20;16.90;99.90
62259;DHT22;48241;48.824;10.102;2023-08-06T01:31:37;16.80;99.90
62259;DHT22;48241;48.824;10.102;2023-08-06T01:34:17;16.90;99.90
62259;DHT22;48241;48.824;10.102;2023-08-06T01:36:58;17.00;99.90
62259;DHT22;48241;48.824;10.102;2023-08-06T01:39:24;16.60;99.90
62259;DHT22;48241;48.824;10.102;2023-08-06T01:41:50;16.60;99.90
62259;DHT22;48241;48.824;10.102;2023-08-06T01:44:16;16.40;99.90
62259;DHT22;48241;48.824;10.102;2023-08-06T01:46:41;16.20;99.90
62259;DHT22;48241;48.824;10.102;2023-08-06T01:49:07;16.40;99.90
62259;DHT22;48241;48.824;10.102;2023-08-06T01:51:33;16.30;99.90
62259;DHT22;48241;48.824;10.102;2023-08-06T01:53:58;16.50;99.90
62259;DHT22;48241;48.824;10.102;2023-08-06T01:56:24;16.30;99.90
62259;DHT22;48241;48.824;10.102;2023-08-06T01:58:50;16.20;99.90
62259;DHT22;48241;48.824;10.102;2023-08-06T02:01:15;16.20;99.90
62259;DHT22;48241;48.824;10.102;2023-08-06T02:03:41;16.20;99.90
62259;DHT22;48241;48.824;10.102;2023-08-06T02:06:07;16.20;99.90
62259;DHT22;48241;48.824;10.102;2023-08-06T02:08:32;16.10;99.90
62259;DHT22;48241;48.824;10.102;2023-08-06T02:10:58;16.10;99.90
62259;DHT22;48241;48.824;10.102;2023-08-06T02:13:23;16.00;99.90
62259;DHT22;48241;48.824;10.102;2023-08-06T02:15:49;16.00;99.90
62259;DHT22;48241;48.824;10.102;2023-08-06T02:18:15;15.80;99.90
62259;DHT22;48241;48.824;10.102;2023-08-06T02:20:42;15.90;99.90
62259;DHT22;48241;48.824;10.102;2023-08-06T02:23:08;15.80;99.90
62259;DHT22;48241;48.824;10.102;2023-08-06T02:25:34;15.60;99.90
62259;DHT22;48241;48.824;10.102;2023-08-06T02:27:59;15.50;99.90
62259;DHT22;48241;48.824;10.102;2023-08-06T02:30:25;15.40;99.90
62259;DHT22;48241;48.824;10.102;2023-08-06T02:32:51;15.30;99.90
62259;DHT22;48241;48.824;10.102;2023-08-06T02:35:16;15.20;99.90
62259;DHT22;48241;48.824;10.102;2023-08-06T02:37:43;15.20;99.90
62259;DHT22;48241;48.824;10.102;2023-08-06T02:40:09;15.20;99.90
62259;DHT22;48241;48.824;10.102;2023-08-06T02:42:34;15.20;99.90
62259;DHT22;48241;48.824;10.102;2023-08-06T02:45:00;15.30;99.90
62259;DHT22;48241;48.824;10.102;2023-08-06T02:47:26;15.30;99.90
62259;DHT22;48241;48.824;10.102;2023-08-06T02:49:51;15.20;99.90
62259;DHT22;48241;48.824;10.102;2023-08-06T02:52:17;15.40;99.90
62259;DHT22;48241;48.824;10.102;2023-08-06T02:54:42;15.50;99.90
62259;DHT22;48241;48.824;10.102;2023-08-06T02:57:08;15.50;99.90
62259;DHT22;48241;48.824;10.102;2023-08-06T02:59:33;15.50;99.90
62259;DHT22;48241;48.824;10.102;2023-08-06T03:01:59;15.60;99.90
62259;DHT22;48241;48.824;10.102;2023-08-06T03:04:24;15.60;99.90
62259;DHT22;48241;48.824;10.102;2023-08-06T03:06:50;15.50;99.90
62259;DHT22;48241;48.824;10.102;2023-08-06T03:09:17;15.40;99.90
62259;DHT22;48241;48.824;10.102;2023-08-06T03:11:42;15.40;99.90
62259;DHT22;48241;48.824;10.102;2023-08-06T03:14:08;15.40;99.90
62259;DHT22;48241;48.824;10.102;2023-08-06T03:16:34;15.50;99.90
62259;DHT22;48241;48.824;10.102;2023-08-06T03:18:59;15.50;99.90
62259;DHT22;48241;48.824;10.102;2023-08-06T03:21:25;15.40;99.90
62259;DHT22;48241;48.824;10.102;2023-08-06T03:23:51;15.70;99.90
62259;DHT22;48241;48.824;10.102;2023-08-06T03:26:16;15.70;99.90
62259;DHT22;48241;48.824;10.102;2023-08-06T03:28:42;15.60;99.90
62259;DHT22;48241;48.824;10.102;2023-08-06T03:31:08;15.70;99.90
62259;DHT22;48241;48.824;10.102;2023-08-06T03:33:33;15.60;99.90
62259;DHT22;48241;48.824;10.102;2023-08-06T03:35:59;15.80;99.90
62259;DHT22;48241;48.824;10.102;2023-08-06T03:38:24;15.80;99.90
62259;DHT22;48241;48.824;10.102;2023-08-06T03:40:50;15.70;99.90
62259;DHT22;48241;48.824;10.102;2023-08-06T03:43:15;15.80;99.90
62259;DHT22;48241;48.824;10.102;2023-08-06T03:45:41;15.80;99.90
62259;DHT22;48241;48.824;10.102;2023-08-06T03:48:07;15.70;99.90
62259;DHT22;48241;48.824;10.102;2023-08-06T03:50:33;16.00;99.90
62259;DHT22;48241;48.824;10.102;2023-08-06T03:52:59;15.90;99.90
62259;DHT22;48241;48.824;10.102;2023-08-06T03:55:25;15.80;99.90
62259;DHT22;48241;48.824;10.102;2023-08-06T03:57:50;15.80;99.90
62259;DHT22;48241;48.824;10.102;2023-08-06T04:00:16;15.70;99.90
62259;DHT22;48241;48.824;10.102;2023-08-06T04:02:42;15.70;99.90
62259;DHT22;48241;48.824;10.102;2023-08-06T04:05:08;15.90;99.90
62259;DHT22;48241;48.824;10.102;2023-08-06T04:07:34;15.90;99.90
62259;DHT22;48241;48.824;10.102;2023-08-06T04:10:01;15.90;99.90
62259;DHT22;48241;48.824;10.102;2023-08-06T04:12:28;15.70;99.90
62259;DHT22;48241;48.824;10.102;2023-08-06T04:14:54;15.70;99.90
62259;DHT22;48241;48.824;10.102;2023-08-06T04:17:20;15.70;99.90
62259;DHT22;48241;48.824;10.102;2023-08-06T04:19:55;15.50;99.90
62259;DHT22;48241;48.824;10.102;2023-08-06T04:22:24;15.40;99.90
62259;DHT22;48241;48.824;10.102;2023-08-06T04:24:50;15.50;99.90
62259;DHT22;48241;48.824;10.102;2023-08-06T04:27:16;15.50;99.90
62259;DHT22;48241;48.824;10.102;2023-08-06T04:29:42;15.60;99.90
62259;DHT22;48241;48.824;10.102;2023-08-06T04:32:09;15.70;99.90
62259;DHT22;48241;48.824;10.102;2023-08-06T04:34:35;15.70;99.90
62259;DHT22;48241;48.824;10.102;2023-08-06T04:37:02;15.90;99.90
62259;DHT22;48241;48.824;10.102;2023-08-06T04:39:28;16.00;99.90
62259;DHT22;48241;48.824;10.102;2023-08-06T04:41:54;15.90;99.20
62259;DHT22;48241;48.824;10.102;2023-08-06T04:44:20;16.20;99.20
62259;DHT22;48241;48.824;10.102;2023-08-06T04:46:46;16.20;99.00
62259;DHT22;48241;48.824;10.102;2023-08-06T04:49:12;16.10;99.30
62259;DHT22;48241;48.824;10.102;2023-08-06T04:51:37;16.30;99.10
62259;DHT22;48241;48.824;10.102;2023-08-06T04:54:03;16.50;98.70
62259;DHT22;48241;48.824;10.102;2023-08-06T04:56:29;16.70;98.20
62259;DHT22;48241;48.824;10.102;2023-08-06T04:58:55;16.70;97.60
62259;DHT22;48241;48.824;10.102;2023-08-06T05:01:20;16.70;96.90
62259;DHT22;48241;48.824;10.102;2023-08-06T05:03:47;16.70;97.70
62259;DHT22;48241;48.824;10.102;2023-08-06T05:06:12;16.70;97.50
62259;DHT22;48241;48.824;10.102;2023-08-06T05:08:38;16.30;98.30
62259;DHT22;48241;48.824;10.102;2023-08-06T05:11:04;16.50;98.20
62259;DHT22;48241;48.824;10.102;2023-08-06T05:13:29;16.60;97.80
62259;DHT22;48241;48.824;10.102;2023-08-06T05:15:55;16.40;98.50
62259;DHT22;48241;48.824;10.102;2023-08-06T05:18:20;16.70;98.40
62259;DHT22;48241;48.824;10.102;2023-08-06T05:20:46;16.60;98.50
62259;DHT22;48241;48.824;10.102;2023-08-06T05:23:12;16.70;97.80
62259;DHT22;48241;48.824;10.102;2023-08-06T05:25:38;16.60;98.10
62259;DHT22;48241;48.824;10.102;2023-08-06T05:28:04;16.70;98.20
62259;DHT22;48241;48.824;10.102;2023-08-06T05:30:29;16.50;98.70
62259;DHT22;48241;48.824;10.102;2023-08-06T05:32:55;16.30;98.50
62259;DHT22;48241;48.824;10.102;2023-08-06T05:35:22;16.20;99.50
62259;DHT22;48241;48.824;10.102;2023-08-06T05:37:47;16.00;99.30
62259;DHT22;48241;48.824;10.102;2023-08-06T05:40:13;16.10;99.70
62259;DHT22;48241;48.824;10.102;2023-08-06T05:42:40;16.50;99.90
62259;DHT22;48241;48.824;10.102;2023-08-06T05:45:06;16.70;98.90
62259;DHT22;48241;48.824;10.102;2023-08-06T05:47:31;16.60;98.80
62259;DHT22;48241;48.824;10.102;2023-08-06T05:49:57;16.70;99.10
62259;DHT22;48241;48.824;10.102;2023-08-06T05:52:23;16.70;98.40
62259;DHT22;48241;48.824;10.102;2023-08-06T05:54:48;16.60;98.50
62259;DHT22;48241;48.824;10.102;2023-08-06T05:57:14;16.60;98.30
62259;DHT22;48241;48.824;10.102;2023-08-06T05:59:40;16.70;98.70
62259;DHT22;48241;48.824;10.102;2023-08-06T06:02:06;16.70;98.80
62259;DHT22;48241;48.824;10.102;2023-08-06T06:04:32;16.80;99.10
62259;DHT22;48241;48.824;10.102;2023-08-06T06:06:57;16.80;98.50
62259;DHT22;48241;48.824;10.102;2023-08-06T06:09:23;16.80;98.20
62259;DHT22;48241;48.824;10.102;2023-08-06T06:11:48;17.10;97.30
62259;DHT22;48241;48.824;10.102;2023-08-06T06:14:16;17.10;97.30
62259;DHT22;48241;48.824;10.102;2023-08-06T06:16:41;17.10;97.10
62259;DHT22;48241;48.824;10.102;2023-08-06T06:19:07;16.90;97.50
62259;DHT22;48241;48.824;10.102;2023-08-06T06:21:32;17.30;97.70
62259;DHT22;48241;48.824;10.102;2023-08-06T06:23:58;17.30;97.40
62259;DHT22;48241;48.824;10.102;2023-08-06T06:26:23;17.20;97.80
62259;DHT22;48241;48.824;10.102;2023-08-06T06:28:49;17.20;97.60
62259;DHT22;48241;48.824;10.102;2023-08-06T06:31:15;17.20;97.60
62259;DHT22;48241;48.824;10.102;2023-08-06T06:33:40;17.00;97.90
62259;DHT22;48241;48.824;10.102;2023-08-06T06:36:06;16.70;98.00
62259;DHT22;48241;48.824;10.102;2023-08-06T06:38:33;16.80;98.00
62259;DHT22;48241;48.824;10.102;2023-08-06T06:40:59;16.80;98.30
62259;DHT22;48241;48.824;10.102;2023-08-06T06:43:26;16.60;97.50
62259;DHT22;48241;48.824;10.102;2023-08-06T06:45:59;16.60;98.20
62259;DHT22;48241;48.824;10.102;2023-08-06T06:48:32;16.20;98.20
62259;DHT22;48241;48.824;10.102;2023-08-06T06:50:58;16.50;98.40
62259;DHT22;48241;48.824;10.102;2023-08-06T06:53:24;16.70;98.00
62259;DHT22;48241;48.824;10.102;2023-08-06T06:55:55;17.10;97.10
62259;DHT22;48241;48.824;10.102;2023-08-06T06:58:21;17.30;96.70
62259;DHT22;48241;48.824;10.102;2023-08-06T07:00:47;17.70;95.90
62259;DHT22;48241;48.824;10.102;2023-08-06T07:03:14;17.60;95.10
62259;DHT22;48241;48.824;10.102;2023-08-06T07:05:40;17.70;94.70
62259;DHT22;48241;48.824;10.102;2023-08-06T07:08:05;17.60;95.40
62259;DHT22;48241;48.824;10.102;2023-08-06T07:10:31;17.40;96.30
62259;DHT22;48241;48.824;10.102;2023-08-06T07:12:56;17.50;95.20
62259;DHT22;48241;48.824;10.102;2023-08-06T07:15:22;17.70;95.10
62259;DHT22;48241;48.824;10.102;2023-08-06T07:17:48;17.70;95.30
62259;DHT22;48241;48.824;10.102;2023-08-06T07:20:13;18.00;94.60
62259;DHT22;48241;48.824;10.102;2023-08-06T07:22:39;17.70;93.90
62259;DHT22;48241;48.824;10.102;2023-08-06T07:25:04;17.50;95.20
62259;DHT22;48241;48.824;10.102;2023-08-06T07:27:30;17.40;95.70
62259;DHT22;48241;48.824;10.102;2023-08-06T07:29:57;17.40;95.60
62259;DHT22;48241;48.824;10.102;2023-08-06T07:32:23;16.90;95.70
62259;DHT22;48241;48.824;10.102;2023-08-06T07:34:49;16.80;96.50
62259;DHT22;48241;48.824;10.102;2023-08-06T07:37:15;17.10;96.90
62259;DHT22;48241;48.824;10.102;2023-08-06T07:39:40;17.90;96.00
62259;DHT22;48241;48.824;10.102;2023-08-06T07:42:07;18.70;95.20
62259;DHT22;48241;48.824;10.102;2023-08-06T07:44:33;19.10;92.90
62259;DHT22;48241;48.824;10.102;2023-08-06T07:46:58;19.10;92.40
62259;DHT22;48241;48.824;10.102;2023-08-06T07:49:24;19.40;91.50
62259;DHT22;48241;48.824;10.102;2023-08-06T07:51:50;19.60;91.90
62259;DHT22;48241;48.824;10.102;2023-08-06T07:54:20;19.80;90.80
62259;DHT22;48241;48.824;10.102;2023-08-06T07:56:45;19.60;90.70
62259;DHT22;48241;48.824;10.102;2023-08-06T07:59:11;19.50;90.90
62259;DHT22;48241;48.824;10.102;2023-08-06T08:01:36;19.60;90.50
62259;DHT22;48241;48.824;10.102;2023-08-06T08:04:02;19.90;91.00
62259;DHT22;48241;48.824;10.102;2023-08-06T08:06:28;19.30;90.90
62259;DHT22;48241;48.824;10.102;2023-08-06T08:08:53;19.60;91.60
62259;DHT22;48241;48.824;10.102;2023-08-06T08:11:20;19.80;89.90
62259;DHT22;48241;48.824;10.102;2023-08-06T08:13:45;20.50;89.00
62259;DHT22;48241;48.824;10.102;2023-08-06T08:16:11;21.70;84.40
62259;DHT22;48241;48.824;10.102;2023-08-06T08:18:36;22.00;82.40
62259;DHT22;48241;48.824;10.102;2023-08-06T08:21:02;21.90;81.50
62259;DHT22;48241;48.824;10.102;2023-08-06T08:23:28;21.60;82.00
62259;DHT22;48241;48.824;10.102;2023-08-06T08:25:53;21.30;82.60
62259;DHT22;48241;48.824;10.102;2023-08-06T08:28:19;20.60;82.50
62259;DHT22;48241;48.824;10.102;2023-08-06T08:30:45;20.40;87.40
62259;DHT22;48241;48.824;10.102;2023-08-06T08:33:11;20.10;86.70
62259;DHT22;48241;48.824;10.102;2023-08-06T08:35:36;20.20;85.70
62259;DHT22;48241;48.824;10.102;2023-08-06T08:38:02;19.80;86.90
62259;DHT22;48241;48.824;10.102;2023-08-06T08:40:32;19.60;90.30
62259;DHT22;48241;48.824;10.102;2023-08-06T08:43:02;19.70;88.50
62259;DHT22;48241;48.824;10.102;2023-08-06T08:45:29;19.20;90.00
62259;DHT22;48241;48.824;10.102;2023-08-06T08:47:55;19.10;90.40
62259;DHT22;48241;48.824;10.102;2023-08-06T08:50:21;20.00;89.00
62259;DHT22;48241;48.824;10.102;2023-08-06T08:52:47;20.50;86.60
62259;DHT22;48241;48.824;10.102;2023-08-06T08:55:15;21.20;83.70
62259;DHT22;48241;48.824;10.102;2023-08-06T08:57:41;21.40;81.90
62259;DHT22;48241;48.824;10.102;2023-08-06T09:00:07;21.30;81.80
62259;DHT22;48241;48.824;10.102;2023-08-06T09:02:33;21.60;81.70
62259;DHT22;48241;48.824;10.102;2023-08-06T09:05:00;21.60;80.60
62259;DHT22;48241;48.824;10.102;2023-08-06T09:07:33;21.30;80.40
62259;DHT22;48241;48.824;10.102;2023-08-06T09:10:02;21.50;80.10
62259;DHT22;48241;48.824;10.102;2023-08-06T09:12:29;21.20;82.40
62259;DHT22;48241;48.824;10.102;2023-08-06T09:14:54;21.40;83.10
62259;DHT22;48241;48.824;10.102;2023-08-06T09:17:20;21.40;81.30
62259;DHT22;48241;48.824;10.102;2023-08-06T09:19:47;21.40;79.50
62259;DHT22;48241;48.824;10.102;2023-08-06T09:22:14;20.50;82.20
62259;DHT22;48241;48.824;10.102;2023-08-06T09:24:43;20.50;81.40
62259;DHT22;48241;48.824;10.102;2023-08-06T09:27:12;20.50;81.90
62259;DHT22;48241;48.824;10.102;2023-08-06T09:29:45;20.10;82.40
62259;DHT22;48241;48.824;10.102;2023-08-06T09:32:12;20.00;83.50
62259;DHT22;48241;48.824;10.102;2023-08-06T09:34:45;20.00;85.20
62259;DHT22;48241;48.824;10.102;2023-08-06T09:37:11;20.50;83.40
62259;DHT22;48241;48.824;10.102;2023-08-06T09:39:39;20.90;81.90
62259;DHT22;48241;48.824;10.102;2023-08-06T09:42:06;21.00;81.90
62259;DHT22;48241;48.824;10.102;2023-08-06T09:44:33;21.10;82.10
62259;DHT22;48241;48.824;10.102;2023-08-06T09:47:02;21.10;80.60
62259;DHT22;48241;48.824;10.102;2023-08-06T09:49:40;21.10;80.20
62259;DHT22;48241;48.824;10.102;2023-08-06T09:52:11;20.70;81.20
62259;DHT22;48241;48.824;10.102;2023-08-06T09:54:38;21.40;80.90
62259;DHT22;48241;48.824;10.102;2023-08-06T09:57:03;21.40;78.80
62259;DHT22;48241;48.824;10.102;2023-08-06T09:59:30;21.30;80.00
62259;DHT22;48241;48.824;10.102;2023-08-06T23:32:27;12.50;99.90
62259;DHT22;48241;48.824;10.102;2023-08-06T23:34:54;12.20;99.90
62259;DHT22;48241;48.824;10.102;2023-08-06T23:37:20;12.20;99.90
62259;DHT22;48241;48.824;10.102;2023-08-06T23:39:45;12.40;99.90
62259;DHT22;48241;48.824;10.102;2023-08-06T23:42:11;12.30;99.90
62259;DHT22;48241;48.824;10.102;2023-08-06T23:44:37;12.10;99.90
62259;DHT22;48241;48.824;10.102;2023-08-06T23:47:03;12.30;99.90
62259;DHT22;48241;48.824;10.102;2023-08-06T23:49:30;12.30;99.90
62259;DHT22;48241;48.824;10.102;2023-08-06T23:51:56;12.20;99.90
62259;DHT22;48241;48.824;10.102;2023-08-06T23:54:22;12.50;99.90
62259;DHT22;48241;48.824;10.102;2023-08-06T23:56:48;12.60;99.90
62259;DHT22;48241;48.824;10.102;2023-08-06T23:59:14;12.40;99.90
